createdAt,value
2018-10-09T00:00:15.579Z,31.67
2018-10-09T00:02:44.387Z,32.50
2018-10-09T00:05:13.182Z,33.33
2018-10-09T00:07:41.992Z,32.07
2018-10-09T00:10:11.859Z,33.27
2018-10-09T00:12:40.667Z,31.60
2018-10-09T00:15:09.572Z,32.37
2018-10-09T00:17:38.386Z,32.70
2018-10-09T00:20:07.204Z,33.17
2018-10-09T00:22:36.019Z,33.10
2018-10-09T00:25:06.376Z,33.17
2018-10-09T00:27:35.163Z,32.57
2018-10-09T00:30:03.953Z,32.50
2018-10-09T00:32:32.775Z,31.57
2018-10-09T00:35:01.609Z,33.47
2018-10-09T00:37:30.419Z,34.37
2018-10-09T00:39:59.256Z,32.37
2018-10-09T00:42:28.060Z,34.63
2018-10-09T00:44:56.831Z,33.27
2018-10-09T00:47:25.638Z,33.77
2018-10-09T00:49:54.463Z,33.30
2018-10-09T00:52:23.363Z,32.23
2018-10-09T00:54:52.207Z,32.23
2018-10-09T00:57:21.031Z,32.50
2018-10-09T00:59:49.840Z,33.00
2018-10-09T01:02:18.698Z,33.20
2018-10-09T01:04:48.540Z,32.43
2018-10-09T01:07:17.348Z,35.00
2018-10-09T01:09:46.150Z,34.17
2018-10-09T01:12:14.995Z,34.37
2018-10-09T01:14:43.791Z,34.47
2018-10-09T01:17:12.615Z,35.77
2018-10-09T01:19:41.380Z,34.23
2018-10-09T01:22:10.175Z,34.27
2018-10-09T01:24:39.437Z,35.00
2018-10-09T01:27:08.377Z,34.57
2018-10-09T01:29:37.144Z,34.43
2018-10-09T01:32:06.131Z,33.63
2018-10-09T01:34:34.924Z,34.10
2018-10-09T01:37:03.757Z,34.07
2018-10-09T01:39:33.032Z,33.80
2018-10-09T01:42:01.824Z,35.00
2018-10-09T01:44:30.618Z,33.70
2018-10-09T01:46:59.411Z,33.80
2018-10-09T01:49:28.503Z,33.30
2018-10-09T01:51:57.272Z,33.23
2018-10-09T01:54:26.143Z,35.10
2018-10-09T01:56:54.980Z,34.40
2018-10-09T01:59:23.816Z,34.13
2018-10-09T02:01:52.647Z,34.10
2018-10-09T02:04:21.485Z,34.87
2018-10-09T02:06:50.273Z,32.87
2018-10-09T02:09:19.095Z,33.97
2018-10-09T02:11:47.880Z,33.30
2018-10-09T02:14:16.698Z,34.97
2018-10-09T02:16:45.476Z,34.73
2018-10-09T02:19:14.304Z,35.13
2018-10-09T02:21:43.431Z,34.47
2018-10-09T02:24:12.274Z,33.70
2018-10-09T02:26:41.083Z,35.77
2018-10-09T02:29:09.860Z,35.23
2018-10-09T02:31:38.695Z,34.40
2018-10-09T02:34:07.475Z,34.63
2018-10-09T02:36:37.373Z,33.60
2018-10-09T02:39:08.110Z,32.93
2018-10-09T02:41:36.983Z,32.43
2018-10-09T02:44:05.751Z,33.33
2018-10-09T02:46:34.551Z,31.37
2018-10-09T02:49:03.385Z,32.57
2018-10-09T02:51:32.187Z,31.63
2018-10-09T02:54:00.963Z,33.30
2018-10-09T02:56:29.780Z,35.53
2018-10-09T02:58:58.563Z,36.67
2018-10-09T03:01:27.356Z,37.80
2018-10-09T03:03:56.168Z,35.83
2018-10-09T03:06:24.982Z,38.20
2018-10-09T03:08:53.780Z,37.07
2018-10-09T03:11:22.591Z,37.57
2018-10-09T03:13:51.435Z,38.17
2018-10-09T03:16:20.244Z,38.10
2018-10-09T03:18:49.019Z,38.17
2018-10-09T03:21:17.819Z,39.87
2018-10-09T03:23:46.635Z,38.07
2018-10-09T03:26:15.430Z,38.50
2018-10-09T03:28:44.302Z,37.57
2018-10-09T03:31:13.091Z,38.03
2018-10-09T03:33:41.930Z,43.80
2018-10-09T03:36:10.756Z,78.77
2018-10-09T03:38:39.557Z,47.50
2018-10-09T03:41:08.535Z,37.47
2018-10-09T03:43:37.415Z,41.40
2018-10-09T03:46:06.230Z,39.63
2018-10-09T03:48:35.247Z,41.07
2018-10-09T03:51:04.068Z,39.20
2018-10-09T03:53:32.834Z,36.23
2018-10-09T03:56:01.625Z,34.33
2018-10-09T03:58:30.435Z,35.40
2018-10-09T04:00:59.271Z,34.97
2018-10-09T04:03:28.057Z,35.93
2018-10-09T04:05:56.972Z,35.00
2018-10-09T04:08:25.853Z,34.83
2018-10-09T04:10:54.639Z,35.53
2018-10-09T04:13:23.472Z,35.33
2018-10-09T04:15:52.371Z,33.43
2018-10-09T04:18:21.407Z,34.83
2018-10-09T04:20:50.182Z,34.63
2018-10-09T04:23:19.132Z,35.60
2018-10-09T04:25:47.931Z,39.13
2018-10-09T04:28:16.737Z,35.87
2018-10-09T04:30:45.503Z,36.60
2018-10-09T04:33:14.295Z,36.53
2018-10-09T04:35:43.285Z,36.23
2018-10-09T04:38:12.015Z,34.13
2018-10-09T04:40:40.836Z,35.83
2018-10-09T04:43:09.634Z,37.03
2018-10-09T04:45:38.484Z,36.23
2018-10-09T04:48:07.555Z,37.67
2018-10-09T04:50:36.364Z,37.67
2018-10-09T04:53:05.219Z,37.47
2018-10-09T04:55:33.966Z,36.77
2018-10-09T04:58:02.755Z,36.03
2018-10-09T05:00:31.606Z,35.70
2018-10-09T05:03:00.391Z,36.53
2018-10-09T05:05:29.147Z,35.57
2018-10-09T05:07:57.948Z,37.13
2018-10-09T05:10:26.715Z,36.77
2018-10-09T05:12:55.518Z,37.33
2018-10-09T05:15:24.365Z,37.03
2018-10-09T05:17:53.269Z,37.10
2018-10-09T05:20:21.963Z,35.93
2018-10-09T05:22:50.758Z,35.13
2018-10-09T05:25:19.577Z,35.57
2018-10-09T05:27:48.414Z,33.40
2018-10-09T05:30:17.195Z,33.03
2018-10-09T05:32:45.987Z,34.17
2018-10-09T05:35:14.787Z,33.57
2018-10-09T05:37:43.618Z,32.77
2018-10-09T05:40:12.608Z,32.77
2018-10-09T05:42:41.399Z,32.70
2018-10-09T05:45:10.492Z,34.50
2018-10-09T05:47:39.331Z,32.27
2018-10-09T05:50:09.256Z,33.33
2018-10-09T05:52:38.280Z,32.33
2018-10-09T05:55:07.671Z,33.43
2018-10-09T05:57:36.672Z,33.20
2018-10-09T06:00:06.373Z,33.10
2018-10-09T06:02:35.187Z,32.77
2018-10-09T06:05:04.261Z,33.93
2018-10-09T06:07:33.085Z,33.30
2018-10-09T06:10:01.868Z,32.77
2018-10-09T06:12:30.688Z,32.80
2018-10-09T06:14:59.464Z,33.43
2018-10-09T06:17:28.269Z,34.47
2018-10-09T06:19:57.044Z,33.47
2018-10-09T06:22:26.184Z,33.87
2018-10-09T06:24:55.068Z,33.40
2018-10-09T06:27:23.860Z,33.30
2018-10-09T06:29:52.720Z,38.63
2018-10-09T06:32:21.632Z,34.73
2018-10-09T06:34:50.471Z,34.43
2018-10-09T06:37:19.376Z,33.93
2018-10-09T06:39:48.161Z,34.30
2018-10-09T06:42:16.968Z,32.70
2018-10-09T06:44:45.756Z,33.80
2018-10-09T06:47:14.576Z,33.40
2018-10-09T06:49:43.368Z,30.93
2018-10-09T06:52:12.192Z,33.40
2018-10-09T06:54:41.075Z,34.53
2018-10-09T06:57:09.851Z,32.23
2018-10-09T06:59:38.723Z,32.33
2018-10-09T07:02:07.689Z,32.20
2018-10-09T07:04:36.604Z,32.97
2018-10-09T07:07:05.708Z,32.33
2018-10-09T07:09:34.503Z,31.27
2018-10-09T07:12:03.303Z,32.20
2018-10-09T07:14:32.140Z,31.00
2018-10-09T07:17:01.048Z,31.93
2018-10-09T07:19:29.688Z,31.57
2018-10-09T07:21:58.520Z,30.57
2018-10-09T07:24:27.460Z,31.23
2018-10-09T07:26:56.260Z,31.67
2018-10-09T07:29:25.091Z,31.40
2018-10-09T07:31:53.924Z,33.13
2018-10-09T07:34:22.716Z,33.77
2018-10-09T07:36:51.769Z,33.23
2018-10-09T07:39:20.577Z,33.43
2018-10-09T07:41:49.388Z,32.67
2018-10-09T07:44:18.187Z,32.77
2018-10-09T07:46:46.977Z,31.63
2018-10-09T07:49:15.764Z,32.67
2018-10-09T07:51:44.560Z,33.17
2018-10-09T07:54:13.339Z,31.73
2018-10-09T07:56:42.144Z,31.53
2018-10-09T07:59:10.966Z,30.53
2018-10-09T08:01:39.777Z,31.67
2018-10-09T08:04:08.632Z,31.30
2018-10-09T08:06:37.623Z,31.40
2018-10-09T08:09:08.319Z,30.70
2018-10-09T08:11:37.188Z,30.70
2018-10-09T08:14:06.744Z,30.10
2018-10-09T08:16:35.665Z,29.13
2018-10-09T08:19:04.467Z,30.83
2018-10-09T08:21:33.300Z,28.17
2018-10-09T08:24:02.124Z,28.90
2018-10-09T08:26:30.924Z,26.83
2018-10-09T08:28:59.768Z,26.17
2018-10-09T08:31:28.552Z,25.20
2018-10-09T08:33:57.391Z,24.60
2018-10-09T08:36:26.179Z,26.03
2018-10-09T08:38:55.518Z,25.17
2018-10-09T08:41:24.591Z,27.83
2018-10-09T08:43:53.741Z,24.13
2018-10-09T08:46:23.170Z,25.00
2018-10-09T08:48:52.653Z,24.87
2018-10-09T08:51:22.749Z,24.80
2018-10-09T08:53:53.438Z,24.77
2018-10-09T08:56:22.402Z,24.47
2018-10-09T08:58:51.269Z,24.63
2018-10-09T09:01:20.127Z,26.43
2018-10-09T09:03:49.384Z,24.73
2018-10-09T09:06:18.168Z,23.43
2018-10-09T09:08:46.996Z,22.90
2018-10-09T09:11:15.815Z,24.00
2018-10-09T09:13:44.636Z,25.20
2018-10-09T09:16:13.444Z,24.03
2018-10-09T09:18:42.252Z,24.77
2018-10-09T09:21:11.103Z,23.97
2018-10-09T09:23:39.853Z,23.63
2018-10-09T09:26:08.677Z,24.30
2018-10-09T09:28:37.444Z,23.67
2018-10-09T09:31:06.243Z,23.73
2018-10-09T09:33:35.074Z,22.93
2018-10-09T09:36:03.876Z,22.90
2018-10-09T09:38:32.693Z,22.53
2018-10-09T09:41:01.533Z,21.10
2018-10-09T09:43:30.349Z,20.10
2018-10-09T09:45:59.326Z,21.23
2018-10-09T09:48:28.032Z,20.33
2018-10-09T09:50:56.890Z,19.07
2018-10-09T09:53:25.764Z,20.20
2018-10-09T09:55:54.627Z,18.77
2018-10-09T09:58:23.540Z,18.47
2018-10-09T10:00:55.811Z,17.87
2018-10-09T10:03:24.874Z,18.80
2018-10-09T10:05:53.652Z,18.80
2018-10-09T10:08:22.452Z,20.30
2018-10-09T10:10:51.260Z,20.27
2018-10-09T10:13:20.146Z,20.63
2018-10-09T10:15:49.284Z,20.37
2018-10-09T10:18:18.088Z,20.47
2018-10-09T10:20:46.940Z,21.73
2018-10-09T10:23:15.818Z,19.43
2018-10-09T10:25:44.613Z,18.03
2018-10-09T10:28:13.492Z,17.83
2018-10-09T10:30:42.313Z,16.93
2018-10-09T10:33:11.219Z,15.57
2018-10-09T10:35:40.094Z,14.90
2018-10-09T10:38:08.920Z,14.60
2018-10-09T10:40:37.731Z,15.07
2018-10-09T10:43:06.612Z,15.83
2018-10-09T10:45:35.425Z,15.93
2018-10-09T10:48:04.255Z,14.83
2018-10-09T10:50:33.076Z,14.87
2018-10-09T10:53:01.922Z,15.53
2018-10-09T10:55:30.724Z,14.63
2018-10-09T10:57:59.532Z,13.87
2018-10-09T11:00:28.343Z,14.83
2018-10-09T11:02:57.208Z,13.37
2018-10-09T11:05:25.995Z,14.43
2018-10-09T11:07:54.856Z,13.27
2018-10-09T11:10:23.647Z,14.13
2018-10-09T11:12:52.476Z,13.73
2018-10-09T11:15:21.312Z,14.50
2018-10-09T11:17:50.370Z,14.93
2018-10-09T11:20:19.852Z,13.20
2018-10-09T11:22:48.752Z,13.10
2018-10-09T11:25:17.564Z,13.70
2018-10-09T11:27:46.576Z,14.10
2018-10-09T11:30:15.501Z,11.70
2018-10-09T11:32:44.352Z,13.13
2018-10-09T11:35:13.177Z,13.03
2018-10-09T11:37:42.016Z,12.37
2018-10-09T11:40:10.855Z,14.07
2018-10-09T11:42:39.700Z,13.03
2018-10-09T11:45:08.488Z,15.07
2018-10-09T11:47:37.308Z,14.17
2018-10-09T11:50:06.687Z,13.07
2018-10-09T11:52:35.509Z,13.97
2018-10-09T11:55:04.342Z,14.27
2018-10-09T11:57:33.152Z,13.73
2018-10-09T12:00:02.976Z,13.10
2018-10-09T12:02:31.783Z,13.37
2018-10-09T12:05:00.601Z,13.10
2018-10-09T12:07:29.432Z,13.17
2018-10-09T12:09:58.262Z,10.50
2018-10-09T12:12:27.094Z,11.80
2018-10-09T12:14:55.926Z,12.23
2018-10-09T12:17:25.058Z,10.50
2018-10-09T12:19:53.917Z,9.60
2018-10-09T12:22:22.711Z,9.70
2018-10-09T12:24:51.527Z,10.33
2018-10-09T12:27:20.358Z,9.80
2018-10-09T12:29:49.280Z,9.97
2018-10-09T12:32:18.122Z,10.10
2018-10-09T12:34:46.920Z,9.87
2018-10-09T12:37:15.739Z,9.00
2018-10-09T12:39:44.520Z,9.73
2018-10-09T12:42:13.320Z,10.17
2018-10-09T12:44:42.120Z,8.83
2018-10-09T12:47:10.941Z,10.03
2018-10-09T12:49:39.754Z,9.30
2018-10-09T12:52:08.537Z,9.10
2018-10-09T12:54:37.403Z,9.40
2018-10-09T12:57:06.223Z,9.57
2018-10-09T12:59:34.992Z,9.37
2018-10-09T13:02:03.775Z,10.50
2018-10-09T13:04:32.563Z,10.50
2018-10-09T13:07:01.353Z,10.37
2018-10-09T13:09:30.192Z,9.47
2018-10-09T13:11:58.939Z,9.30
2018-10-09T13:14:27.743Z,8.83
2018-10-09T13:16:56.529Z,9.80
2018-10-09T13:19:25.330Z,9.20
2018-10-09T13:21:54.347Z,9.38
2018-10-09T13:24:23.000Z,9.73
2018-10-09T13:26:51.784Z,9.65
2018-10-09T13:29:20.628Z,9.40
2018-10-09T13:31:50.242Z,10.00
2018-10-09T13:34:19.567Z,10.08
2018-10-09T13:36:48.496Z,9.35
2018-10-09T13:39:17.312Z,8.70
2018-10-09T13:41:46.112Z,8.88
2018-10-09T13:44:15.043Z,8.68
2018-10-09T13:46:43.800Z,9.08
2018-10-09T13:49:12.633Z,9.10
2018-10-09T13:51:41.426Z,8.63
2018-10-09T13:54:10.226Z,8.95
2018-10-09T13:56:39.054Z,8.80
2018-10-09T13:59:07.900Z,8.45
2018-10-09T14:01:36.701Z,9.28
2018-10-09T14:04:05.489Z,8.85
2018-10-09T14:06:34.282Z,9.35
2018-10-09T14:09:03.100Z,9.40
2018-10-09T14:11:31.888Z,8.75
2018-10-09T14:14:00.711Z,9.40
2018-10-09T14:16:29.513Z,9.55
2018-10-09T14:18:58.316Z,9.08
2018-10-09T14:21:27.120Z,8.70
2018-10-09T14:23:56.148Z,8.60
2018-10-09T14:26:24.938Z,9.10
2018-10-09T14:28:53.799Z,9.43
2018-10-09T14:31:22.659Z,8.90
2018-10-09T14:33:51.531Z,8.70
2018-10-09T14:36:20.341Z,8.68
2018-10-09T14:38:49.180Z,9.35
2018-10-09T14:41:17.957Z,9.00
2018-10-09T14:43:46.865Z,8.65
2018-10-09T14:46:15.695Z,9.13
2018-10-09T14:48:44.526Z,9.20
2018-10-09T14:51:13.406Z,9.53
2018-10-09T14:53:42.316Z,9.60
2018-10-09T14:56:11.108Z,9.05
2018-10-09T14:58:39.919Z,9.28
2018-10-09T15:01:09.095Z,8.40
2018-10-09T15:03:37.961Z,9.08
2018-10-09T15:06:07.021Z,9.55
2018-10-09T15:08:35.850Z,8.73
2018-10-09T15:11:04.693Z,9.57
2018-10-09T15:13:33.673Z,8.80
2018-10-09T15:16:02.551Z,8.30
2018-10-09T15:18:31.369Z,8.73
2018-10-09T15:21:00.165Z,8.30
2018-10-09T15:23:29.053Z,8.57
2018-10-09T15:25:57.945Z,7.67
2018-10-09T15:28:26.825Z,8.50
2018-10-09T15:30:55.722Z,8.03
2018-10-09T15:33:24.629Z,8.10
2018-10-09T15:35:53.463Z,7.90
2018-10-09T15:38:22.299Z,8.13
2018-10-09T15:40:51.241Z,8.60
2018-10-09T15:43:20.077Z,7.60
2018-10-09T15:45:49.023Z,8.97
2018-10-09T15:48:17.932Z,8.33
2018-10-09T15:50:46.752Z,10.03
2018-10-09T15:53:15.661Z,11.43
2018-10-09T15:55:44.501Z,11.10
2018-10-09T15:58:13.411Z,11.47
2018-10-09T16:00:42.212Z,12.60
2018-10-09T16:03:11.208Z,13.03
2018-10-09T16:05:40.015Z,12.53
2018-10-09T16:08:08.800Z,12.20
2018-10-09T16:10:37.597Z,13.67
2018-10-09T16:13:06.388Z,13.93
2018-10-09T16:15:35.441Z,13.83
2018-10-09T16:18:04.247Z,14.03
2018-10-09T16:20:33.102Z,14.70
2018-10-09T16:23:05.544Z,14.90
2018-10-09T16:25:34.379Z,15.90
2018-10-09T16:28:03.202Z,15.20
2018-10-09T16:30:32.039Z,16.70
2018-10-09T16:33:00.883Z,16.60
2018-10-09T16:35:29.911Z,18.30
2018-10-09T16:37:58.934Z,17.30
2018-10-09T16:40:28.064Z,18.47
2018-10-09T16:43:00.649Z,19.07
2018-10-09T16:45:29.477Z,19.47
2018-10-09T16:47:58.314Z,20.93
2018-10-09T16:50:27.284Z,21.13
2018-10-09T16:52:56.171Z,20.87
2018-10-09T16:55:25.016Z,20.57
2018-10-09T16:57:54.517Z,22.20
2018-10-09T17:00:23.414Z,22.67
2018-10-09T17:02:52.245Z,21.80
2018-10-09T17:05:21.117Z,22.37
2018-10-09T17:07:49.972Z,22.80
2018-10-09T17:10:18.959Z,22.30
2018-10-09T17:12:47.780Z,24.07
2018-10-09T17:15:16.645Z,23.33
2018-10-09T17:17:45.407Z,23.03
2018-10-09T17:20:14.976Z,23.40
2018-10-09T17:22:43.782Z,22.57
2018-10-09T17:25:12.597Z,22.47
2018-10-09T17:27:41.593Z,23.70
2018-10-09T17:30:10.619Z,23.10
2018-10-09T17:32:39.469Z,23.13
2018-10-09T17:35:08.319Z,24.80
2018-10-09T17:37:37.112Z,26.47
2018-10-09T17:40:06.320Z,27.17
2018-10-09T17:42:35.265Z,24.87
2018-10-09T17:45:04.104Z,27.13
2018-10-09T17:47:32.914Z,25.00
2018-10-09T17:50:01.829Z,26.90
2018-10-09T17:52:30.612Z,28.27
2018-10-09T17:54:59.420Z,27.70
2018-10-09T17:57:28.215Z,28.07
2018-10-09T17:59:57.071Z,28.40
2018-10-09T18:02:26.171Z,28.30
2018-10-09T18:04:55.040Z,27.23
2018-10-09T18:07:23.889Z,27.27
2018-10-09T18:09:52.743Z,27.13
2018-10-09T18:12:21.577Z,27.40
2018-10-09T18:14:50.577Z,28.40
2018-10-09T18:17:20.394Z,27.30
2018-10-09T18:19:49.362Z,27.03
2018-10-09T18:22:18.555Z,28.23
2018-10-09T18:24:47.558Z,28.20
2018-10-09T18:27:16.365Z,29.97
2018-10-09T18:29:45.238Z,29.00
2018-10-09T18:32:14.216Z,28.23
2018-10-09T18:34:43.126Z,28.10
2018-10-09T18:37:11.952Z,26.80
2018-10-09T18:39:40.938Z,28.30
2018-10-09T18:42:09.801Z,28.63
2018-10-09T18:44:38.651Z,29.13
2018-10-09T18:47:11.722Z,28.90
2018-10-09T18:49:40.502Z,27.57
2018-10-09T18:52:09.343Z,28.90
2018-10-09T18:54:38.171Z,28.00
2018-10-09T18:57:07.084Z,29.67
2018-10-09T18:59:35.868Z,30.33
2018-10-09T19:02:04.700Z,27.90
2018-10-09T19:04:33.554Z,29.43
2018-10-09T19:07:02.536Z,28.20
2018-10-09T19:09:31.435Z,29.00
2018-10-09T19:12:01.369Z,30.10
2018-10-09T19:14:30.265Z,29.40
2018-10-09T19:16:59.151Z,29.60
2018-10-09T19:19:28.065Z,30.63
2018-10-09T19:21:56.899Z,31.23
2018-10-09T19:24:26.711Z,31.17
2018-10-09T19:26:55.552Z,31.53
2018-10-09T19:29:24.408Z,30.87
2018-10-09T19:31:53.228Z,28.17
2018-10-09T19:34:22.115Z,28.87
2018-10-09T19:36:50.936Z,30.03
2018-10-09T19:39:19.772Z,30.50
2018-10-09T19:41:48.575Z,31.07
2018-10-09T19:44:17.425Z,30.17
2018-10-09T19:46:46.332Z,29.70
2018-10-09T19:49:15.170Z,31.77
2018-10-09T19:51:44.017Z,32.97
2018-10-09T19:54:12.808Z,35.03
2018-10-09T19:56:41.741Z,33.17
2018-10-09T19:59:11.166Z,32.87
2018-10-09T20:01:39.929Z,30.00
2018-10-09T20:04:08.881Z,30.67
2018-10-09T20:06:37.767Z,32.27
2018-10-09T20:09:09.320Z,30.97
2018-10-09T20:11:38.831Z,31.80
2018-10-09T20:14:08.565Z,31.53
2018-10-09T20:16:37.554Z,33.03
2018-10-09T20:19:06.894Z,34.40
2018-10-09T20:21:35.807Z,33.23
2018-10-09T20:24:05.037Z,34.57
2018-10-09T20:26:34.196Z,33.33
2018-10-09T20:29:04.008Z,31.60
2018-10-09T20:31:32.904Z,31.90
2018-10-09T20:34:01.775Z,32.00
2018-10-09T20:36:31.133Z,32.13
2018-10-09T20:39:00.011Z,31.53
2018-10-09T20:41:28.871Z,32.53
2018-10-09T20:43:57.814Z,32.47
2018-10-09T20:46:27.419Z,31.33
2018-10-09T20:48:56.277Z,32.97
2018-10-09T20:51:25.260Z,31.93
2018-10-09T20:53:54.497Z,32.37
2018-10-09T20:56:23.515Z,32.63
2018-10-09T20:58:52.325Z,32.63
2018-10-09T21:01:22.987Z,33.53
2018-10-09T21:03:51.807Z,33.87
2018-10-09T21:06:20.623Z,33.30
2018-10-09T21:08:49.496Z,33.63
2018-10-09T21:11:18.405Z,33.37
2018-10-09T21:13:47.271Z,33.73
2018-10-09T21:16:16.180Z,33.20
2018-10-09T21:18:44.970Z,33.93
2018-10-09T21:21:13.848Z,36.47
2018-10-09T21:23:42.640Z,35.57
2018-10-09T21:26:12.044Z,35.03
2018-10-09T21:28:40.860Z,33.70
2018-10-09T21:31:10.048Z,36.17
2018-10-09T21:33:38.991Z,35.33
2018-10-09T21:36:08.048Z,35.17
2018-10-09T21:38:36.965Z,34.37
2018-10-09T21:41:05.788Z,34.53
2018-10-09T21:43:34.679Z,35.20
2018-10-09T21:46:04.354Z,35.47
2018-10-09T21:48:33.304Z,35.13
2018-10-09T21:51:02.131Z,34.33
2018-10-09T21:53:30.960Z,35.63
2018-10-09T21:55:59.871Z,35.23
2018-10-09T21:58:28.963Z,36.00
2018-10-09T22:01:03.334Z,35.87
2018-10-09T22:03:32.432Z,35.63
2018-10-09T22:06:01.264Z,34.50
2018-10-09T22:08:30.113Z,36.03
2018-10-09T22:11:00.569Z,36.03
2018-10-09T22:13:29.549Z,35.53
2018-10-09T22:15:59.680Z,35.83
2018-10-09T22:18:28.487Z,35.27
2018-10-09T22:20:57.339Z,34.87
2018-10-09T22:23:26.172Z,36.77
2018-10-09T22:25:55.065Z,35.37
2018-10-09T22:28:25.391Z,36.50
2018-10-09T22:30:54.212Z,36.20
2018-10-09T22:33:23.053Z,35.20
2018-10-09T22:35:51.988Z,36.93
2018-10-09T22:38:20.978Z,35.90
2018-10-09T22:40:49.815Z,35.03
2018-10-09T22:43:18.666Z,35.73
2018-10-09T22:45:47.594Z,35.80
2018-10-09T22:48:16.973Z,36.50
2018-10-09T22:50:45.860Z,35.63
2018-10-09T22:53:14.665Z,35.03
2018-10-09T22:55:43.557Z,35.10
2018-10-09T22:58:12.421Z,35.27
2018-10-09T23:00:41.960Z,36.47
2018-10-09T23:03:10.768Z,37.40
2018-10-09T23:05:39.696Z,37.73
2018-10-09T23:08:08.521Z,36.27
2018-10-09T23:10:37.411Z,35.40
2018-10-09T23:13:06.300Z,36.83
2018-10-09T23:15:35.094Z,37.00
2018-10-09T23:18:03.984Z,35.47
2018-10-09T23:20:32.829Z,35.30
2018-10-09T23:23:01.711Z,36.80
2018-10-09T23:25:30.523Z,37.23
2018-10-09T23:28:00.415Z,37.83
2018-10-09T23:30:29.332Z,38.27
2018-10-09T23:32:58.212Z,38.00
2018-10-09T23:35:27.009Z,39.13
2018-10-09T23:37:56.434Z,38.63
2018-10-09T23:40:25.376Z,38.30
2018-10-09T23:42:55.043Z,38.33
2018-10-09T23:45:23.917Z,39.97
2018-10-09T23:47:58.171Z,38.80
2018-10-09T23:50:26.988Z,37.27
2018-10-09T23:52:56.876Z,39.47
2018-10-09T23:55:26.054Z,39.23
2018-10-09T23:57:54.868Z,39.20
